Hughson, California
Current Conditions -  °F | °C
As of 10:53 AM on Friday 28 Nov 2014 (Local Time) from KMOD Reporting Station
Haze Haze  
Wind Chill: 57°   Ceiling: Unl
Heat Index: 57°   Visibility: 3mi
Dew Point: 48°   Wind: 5mph
Humidity: 72%   Direction: 120°ESE
Pressure: 30.01"   Gusts: NA
Location:  37.6°N, 120.87°W
Report Text: KMOD 281853Z 12004KT 3SM HZ CLR 14/09 A3001 RMK AO2 SLP162 T01390089
Loading
Personal Weather Stations






























Interactive Weather Map New forecast layout! Learn more

10-Day Weather Forecast

Advertisements
Track Severe Weather on mobile